< Typhoon 196917 1969 Season Typhoon 196919 >
Typhoon 196918 (LORNA)
General InformationTrack Information on Google Maps || Disaster Info.ResourceGoogle EarthGE AnimationAtom FeedGeoJSON
Detalied Best Track (Time Zone = UTC)
Year Month Day Hour Lat. Long. Pressure (hPa) Wind (kt) Class Image Chart
1969 11 23 12 8.5 138.5 1006 0 2 -- Chart
1969 11 23 18 9.1 137.1 1004 0 2 -- Chart
1969 11 24 00 9.4 135.5 1000 0 2 -- Chart
1969 11 24 06 9.5 134.1 995 0 2 -- Chart
1969 11 24 12 9.9 133.2 990 0 2 -- Chart
1969 11 24 18 10.3 132.6 995 0 2 -- Chart
1969 11 25 00 10.8 132.1 1000 0 2 -- Chart
1969 11 25 06 11.7 131.7 995 0 2 -- Chart
1969 11 25 12 12.2 131.2 990 0 9 -- Chart
1969 11 25 18 12.8 131.3 990 0 9 -- Chart
1969 11 26 00 13.7 131.5 985 0 9 -- Chart
1969 11 26 06 14.1 131.8 990 0 9 -- Chart
1969 11 26 12 13.5 131.4 990 0 9 -- Chart
1969 11 26 18 13.6 130.9 995 0 9 -- Chart
1969 11 27 00 13.9 130.9 995 0 9 -- Chart
1969 11 27 06 14.0 130.0 990 0 9 -- Chart
1969 11 27 12 14.7 129.1 990 0 9 -- Chart
1969 11 27 18 15.0 130.0 1000 0 9 -- Chart
1969 11 28 00 14.3 130.0 1002 0 9 -- Chart
1969 11 28 06 15.2 128.9 1002 0 9 -- Chart
1969 11 28 12 15.8 129.0 1002 0 9 -- Chart
1969 11 28 18 15.4 128.6 1000 0 9 -- Chart
1969 11 29 00 15.2 128.0 1000 0 9 -- Chart
1969 11 29 06 15.2 127.4 1000 0 9 -- Chart
1969 11 29 12 15.3 126.7 1002 0 9 -- Chart
1969 11 29 18 15.7 126.0 1002 0 9 -- Chart
1969 11 30 00 16.0 125.5 1002 0 9 -- Chart
1969 11 30 06 16.3 125.2 1004 0 2 -- Chart
1969 11 30 12 16.8 124.8 1006 0 2 -- Chart
Japan Meteorological Agency Best Track Data | Correction Date : 1989-06-01
< Typhoon 196917 1969 Season Typhoon 196919 >

Help